sensor_id;sensor_type;location;lat;lon;timestamp;temperature;humidity
28171;DHT22;15458;53.346;-1.688;2023-02-08T00:00:49;3.20;99.90
28171;DHT22;15458;53.346;-1.688;2023-02-08T00:03:15;3.30;99.90
28171;DHT22;15458;53.346;-1.688;2023-02-08T00:05:41;3.30;99.90
28171;DHT22;15458;53.346;-1.688;2023-02-08T00:08:07;3.30;99.90
28171;DHT22;15458;53.346;-1.688;2023-02-08T00:10:33;3.30;99.90
28171;DHT22;15458;53.346;-1.688;2023-02-08T00:12:59;3.40;99.90
28171;DHT22;15458;53.346;-1.688;2023-02-08T00:15:25;3.30;99.90
28171;DHT22;15458;53.346;-1.688;2023-02-08T00:17:51;3.30;99.90
28171;DHT22;15458;53.346;-1.688;2023-02-08T00:20:16;3.20;99.90
28171;DHT22;15458;53.346;-1.688;2023-02-08T00:22:42;3.20;99.90
28171;DHT22;15458;53.346;-1.688;2023-02-08T00:25:10;3.10;99.90
28171;DHT22;15458;53.346;-1.688;2023-02-08T00:27:36;3.00;99.90
28171;DHT22;15458;53.346;-1.688;2023-02-08T00:30:02;3.00;99.90
28171;DHT22;15458;53.346;-1.688;2023-02-08T00:32:31;2.90;99.90
28171;DHT22;15458;53.346;-1.688;2023-02-08T00:34:56;2.80;99.90
28171;DHT22;15458;53.346;-1.688;2023-02-08T00:37:22;2.70;99.90
28171;DHT22;15458;53.346;-1.688;2023-02-08T00:39:48;2.70;99.90
28171;DHT22;15458;53.346;-1.688;2023-02-08T00:42:16;2.70;99.90
28171;DHT22;15458;53.346;-1.688;2023-02-08T00:44:41;2.60;99.90
28171;DHT22;15458;53.346;-1.688;2023-02-08T00:47:07;2.60;99.90
28171;DHT22;15458;53.346;-1.688;2023-02-08T00:49:33;2.60;99.90
28171;DHT22;15458;53.346;-1.688;2023-02-08T00:51:58;2.50;99.90
28171;DHT22;15458;53.346;-1.688;2023-02-08T00:54:24;2.50;99.90
28171;DHT22;15458;53.346;-1.688;2023-02-08T00:56:50;2.40;99.90
28171;DHT22;15458;53.346;-1.688;2023-02-08T00:59:16;2.30;99.90
28171;DHT22;15458;53.346;-1.688;2023-02-08T01:01:43;2.30;99.90
28171;DHT22;15458;53.346;-1.688;2023-02-08T01:04:09;2.30;99.90
28171;DHT22;15458;53.346;-1.688;2023-02-08T01:06:38;2.30;99.90
28171;DHT22;15458;53.346;-1.688;2023-02-08T01:09:04;2.30;99.90
28171;DHT22;15458;53.346;-1.688;2023-02-08T01:11:32;2.30;99.90
28171;DHT22;15458;53.346;-1.688;2023-02-08T01:13:58;2.30;99.90
28171;DHT22;15458;53.346;-1.688;2023-02-08T01:16:27;2.20;99.90
28171;DHT22;15458;53.346;-1.688;2023-02-08T01:18:55;2.20;99.90
28171;DHT22;15458;53.346;-1.688;2023-02-08T01:21:24;2.10;99.90
28171;DHT22;15458;53.346;-1.688;2023-02-08T01:23:56;2.10;99.90
28171;DHT22;15458;53.346;-1.688;2023-02-08T01:26:23;2.00;99.90
28171;DHT22;15458;53.346;-1.688;2023-02-08T01:28:50;2.10;99.90
28171;DHT22;15458;53.346;-1.688;2023-02-08T01:31:28;2.00;99.90
28171;DHT22;15458;53.346;-1.688;2023-02-08T01:33:55;2.00;99.90
28171;DHT22;15458;53.346;-1.688;2023-02-08T01:36:21;1.90;99.90
28171;DHT22;15458;53.346;-1.688;2023-02-08T01:38:47;1.90;99.90
28171;DHT22;15458;53.346;-1.688;2023-02-08T01:41:18;1.80;99.90
28171;DHT22;15458;53.346;-1.688;2023-02-08T01:46:33;1.80;99.90
28171;DHT22;15458;53.346;-1.688;2023-02-08T01:49:07;1.70;99.90
28171;DHT22;15458;53.346;-1.688;2023-02-08T01:51:49;1.70;99.90
28171;DHT22;15458;53.346;-1.688;2023-02-08T01:54:17;1.70;99.90
28171;DHT22;15458;53.346;-1.688;2023-02-08T01:56:55;1.70;99.90
28171;DHT22;15458;53.346;-1.688;2023-02-08T01:59:27;1.60;99.90
28171;DHT22;15458;53.346;-1.688;2023-02-08T02:01:58;1.60;99.90
28171;DHT22;15458;53.346;-1.688;2023-02-08T02:04:25;1.60;99.90
28171;DHT22;15458;53.346;-1.688;2023-02-08T02:06:56;1.50;99.90
28171;DHT22;15458;53.346;-1.688;2023-02-08T02:09:34;1.50;99.90
28171;DHT22;15458;53.346;-1.688;2023-02-08T02:12:01;1.50;99.90
28171;DHT22;15458;53.346;-1.688;2023-02-08T02:14:27;1.40;99.90
28171;DHT22;15458;53.346;-1.688;2023-02-08T02:16:59;1.40;99.90
28171;DHT22;15458;53.346;-1.688;2023-02-08T02:33:26;1.10;99.90
28171;DHT22;15458;53.346;-1.688;2023-02-08T02:41:41;1.00;99.90
28171;DHT22;15458;53.346;-1.688;2023-02-08T02:44:57;0.90;99.90
28171;DHT22;15458;53.346;-1.688;2023-02-08T02:52:44;0.80;99.90
28171;DHT22;15458;53.346;-1.688;2023-02-08T02:55:14;0.80;99.90
28171;DHT22;15458;53.346;-1.688;2023-02-08T02:57:46;0.80;99.90
28171;DHT22;15458;53.346;-1.688;2023-02-08T03:00:21;0.80;99.90
28171;DHT22;15458;53.346;-1.688;2023-02-08T03:02:51;0.80;99.90
28171;DHT22;15458;53.346;-1.688;2023-02-08T03:05:18;0.80;99.90
28171;DHT22;15458;53.346;-1.688;2023-02-08T03:10:38;0.80;99.90
28171;DHT22;15458;53.346;-1.688;2023-02-08T03:16:17;0.80;99.90
28171;DHT22;15458;53.346;-1.688;2023-02-08T03:19:06;0.70;99.90
28171;DHT22;15458;53.346;-1.688;2023-02-08T03:21:49;0.80;99.90
28171;DHT22;15458;53.346;-1.688;2023-02-08T03:35:41;0.60;99.90
28171;DHT22;15458;53.346;-1.688;2023-02-08T03:38:28;0.60;99.90
28171;DHT22;15458;53.346;-1.688;2023-02-08T03:40:55;0.50;99.90
28171;DHT22;15458;53.346;-1.688;2023-02-08T03:43:35;0.40;99.90
28171;DHT22;15458;53.346;-1.688;2023-02-08T03:46:17;0.50;99.90
28171;DHT22;15458;53.346;-1.688;2023-02-08T03:48:51;0.50;99.90
28171;DHT22;15458;53.346;-1.688;2023-02-08T03:51:19;0.40;99.90
28171;DHT22;15458;53.346;-1.688;2023-02-08T03:53:47;0.40;99.90
28171;DHT22;15458;53.346;-1.688;2023-02-08T03:56:21;0.40;99.90
28171;DHT22;15458;53.346;-1.688;2023-02-08T03:59:12;0.40;99.90
28171;DHT22;15458;53.346;-1.688;2023-02-08T04:01:46;0.40;99.90
28171;DHT22;15458;53.346;-1.688;2023-02-08T04:04:14;0.30;99.90
28171;DHT22;15458;53.346;-1.688;2023-02-08T04:06:42;0.40;99.90
28171;DHT22;15458;53.346;-1.688;2023-02-08T04:09:13;0.30;99.90
28171;DHT22;15458;53.346;-1.688;2023-02-08T04:11:39;0.30;99.90
28171;DHT22;15458;53.346;-1.688;2023-02-08T04:14:05;0.20;99.90
28171;DHT22;15458;53.346;-1.688;2023-02-08T04:16:30;0.20;99.90
28171;DHT22;15458;53.346;-1.688;2023-02-08T04:18:56;0.20;99.90
28171;DHT22;15458;53.346;-1.688;2023-02-08T04:21:22;0.20;99.90
28171;DHT22;15458;53.346;-1.688;2023-02-08T04:23:47;0.20;99.90
28171;DHT22;15458;53.346;-1.688;2023-02-08T04:26:13;0.20;99.90
28171;DHT22;15458;53.346;-1.688;2023-02-08T04:28:41;0.10;99.90
28171;DHT22;15458;53.346;-1.688;2023-02-08T04:31:10;0.10;99.90
28171;DHT22;15458;53.346;-1.688;2023-02-08T04:33:36;0.10;99.90
28171;DHT22;15458;53.346;-1.688;2023-02-08T04:36:01;0.10;99.90
28171;DHT22;15458;53.346;-1.688;2023-02-08T04:38:27;0.00;99.90
28171;DHT22;15458;53.346;-1.688;2023-02-08T04:40:53;0.00;99.90
28171;DHT22;15458;53.346;-1.688;2023-02-08T04:43:19;0.00;99.90
28171;DHT22;15458;53.346;-1.688;2023-02-08T04:45:44;-0.10;99.90
28171;DHT22;15458;53.346;-1.688;2023-02-08T04:48:12;-0.10;99.90
28171;DHT22;15458;53.346;-1.688;2023-02-08T04:50:38;-0.10;99.90
28171;DHT22;15458;53.346;-1.688;2023-02-08T04:53:06;-0.10;99.90
28171;DHT22;15458;53.346;-1.688;2023-02-08T04:55:32;-0.10;99.90
28171;DHT22;15458;53.346;-1.688;2023-02-08T04:57:58;-0.20;99.90
28171;DHT22;15458;53.346;-1.688;2023-02-08T05:00:27;-0.20;99.90
28171;DHT22;15458;53.346;-1.688;2023-02-08T05:02:57;-0.20;99.90
28171;DHT22;15458;53.346;-1.688;2023-02-08T05:05:24;-0.20;99.90
28171;DHT22;15458;53.346;-1.688;2023-02-08T05:07:50;-0.30;99.90
28171;DHT22;15458;53.346;-1.688;2023-02-08T05:10:19;-0.30;99.90
28171;DHT22;15458;53.346;-1.688;2023-02-08T05:12:46;-0.30;99.90
28171;DHT22;15458;53.346;-1.688;2023-02-08T05:15:12;-0.30;99.90
28171;DHT22;15458;53.346;-1.688;2023-02-08T05:17:37;-0.40;99.90
28171;DHT22;15458;53.346;-1.688;2023-02-08T05:20:03;-0.40;99.90
28171;DHT22;15458;53.346;-1.688;2023-02-08T05:22:31;-0.40;99.90
28171;DHT22;15458;53.346;-1.688;2023-02-08T05:24:56;-0.40;99.90
28171;DHT22;15458;53.346;-1.688;2023-02-08T05:27:22;-0.30;99.90
28171;DHT22;15458;53.346;-1.688;2023-02-08T05:29:48;-0.30;99.90
28171;DHT22;15458;53.346;-1.688;2023-02-08T05:32:13;-0.30;99.90
28171;DHT22;15458;53.346;-1.688;2023-02-08T05:34:39;-0.30;99.90
28171;DHT22;15458;53.346;-1.688;2023-02-08T05:37:05;-0.20;99.90
28171;DHT22;15458;53.346;-1.688;2023-02-08T05:39:30;-0.30;99.90
28171;DHT22;15458;53.346;-1.688;2023-02-08T05:41:56;-0.30;99.90
28171;DHT22;15458;53.346;-1.688;2023-02-08T05:44:22;-0.30;99.90
28171;DHT22;15458;53.346;-1.688;2023-02-08T05:46:47;-0.20;99.90
28171;DHT22;15458;53.346;-1.688;2023-02-08T05:49:13;-0.30;99.90
28171;DHT22;15458;53.346;-1.688;2023-02-08T05:51:39;-0.20;99.90
28171;DHT22;15458;53.346;-1.688;2023-02-08T05:54:05;-0.30;99.90
28171;DHT22;15458;53.346;-1.688;2023-02-08T05:56:31;-0.20;99.90
28171;DHT22;15458;53.346;-1.688;2023-02-08T05:58:59;-0.20;99.90
28171;DHT22;15458;53.346;-1.688;2023-02-08T06:01:25;-0.20;99.90
28171;DHT22;15458;53.346;-1.688;2023-02-08T06:03:51;-0.20;99.90
28171;DHT22;15458;53.346;-1.688;2023-02-08T06:06:17;-0.10;99.90
28171;DHT22;15458;53.346;-1.688;2023-02-08T06:08:42;-0.20;99.90
28171;DHT22;15458;53.346;-1.688;2023-02-08T06:11:08;-0.10;99.90
28171;DHT22;15458;53.346;-1.688;2023-02-08T06:13:34;-0.10;99.90
28171;DHT22;15458;53.346;-1.688;2023-02-08T06:15:59;-0.10;99.90
28171;DHT22;15458;53.346;-1.688;2023-02-08T06:18:25;-0.10;99.90
28171;DHT22;15458;53.346;-1.688;2023-02-08T06:20:52;-0.10;99.90
28171;DHT22;15458;53.346;-1.688;2023-02-08T06:23:19;-0.10;99.90
28171;DHT22;15458;53.346;-1.688;2023-02-08T06:25:48;-0.10;99.90
28171;DHT22;15458;53.346;-1.688;2023-02-08T06:28:15;-0.10;99.90
28171;DHT22;15458;53.346;-1.688;2023-02-08T06:30:41;-0.10;99.90
28171;DHT22;15458;53.346;-1.688;2023-02-08T06:33:07;-0.10;99.90
28171;DHT22;15458;53.346;-1.688;2023-02-08T06:35:34;-0.10;99.90
28171;DHT22;15458;53.346;-1.688;2023-02-08T06:37:59;-0.10;99.90
28171;DHT22;15458;53.346;-1.688;2023-02-08T06:40:25;-0.10;99.90
28171;DHT22;15458;53.346;-1.688;2023-02-08T06:43:00;-0.10;99.90
28171;DHT22;15458;53.346;-1.688;2023-02-08T06:45:26;-0.10;99.90
28171;DHT22;15458;53.346;-1.688;2023-02-08T06:47:58;-0.10;99.90
28171;DHT22;15458;53.346;-1.688;2023-02-08T06:50:23;-0.10;99.90
28171;DHT22;15458;53.346;-1.688;2023-02-08T06:52:49;-0.10;99.90
28171;DHT22;15458;53.346;-1.688;2023-02-08T06:55:15;-0.10;99.90
28171;DHT22;15458;53.346;-1.688;2023-02-08T06:57:41;-0.20;99.90
28171;DHT22;15458;53.346;-1.688;2023-02-08T07:00:07;-0.20;99.90
28171;DHT22;15458;53.346;-1.688;2023-02-08T07:02:33;-0.30;99.90
28171;DHT22;15458;53.346;-1.688;2023-02-08T07:05:00;-0.30;99.90
28171;DHT22;15458;53.346;-1.688;2023-02-08T07:07:26;-0.30;99.90
28171;DHT22;15458;53.346;-1.688;2023-02-08T07:09:52;-0.30;99.90
28171;DHT22;15458;53.346;-1.688;2023-02-08T07:12:19;-0.30;99.90
28171;DHT22;15458;53.346;-1.688;2023-02-08T07:14:45;-0.30;99.90
28171;DHT22;15458;53.346;-1.688;2023-02-08T07:17:11;-0.30;99.90
28171;DHT22;15458;53.346;-1.688;2023-02-08T07:19:37;-0.30;99.90
28171;DHT22;15458;53.346;-1.688;2023-02-08T07:22:03;-0.30;99.90
28171;DHT22;15458;53.346;-1.688;2023-02-08T07:24:34;-0.40;99.90
28171;DHT22;15458;53.346;-1.688;2023-02-08T07:27:00;-0.40;99.90
28171;DHT22;15458;53.346;-1.688;2023-02-08T07:29:29;-0.40;99.90
28171;DHT22;15458;53.346;-1.688;2023-02-08T07:31:54;-0.40;99.90
28171;DHT22;15458;53.346;-1.688;2023-02-08T07:34:20;-0.40;99.90
28171;DHT22;15458;53.346;-1.688;2023-02-08T07:36:47;-0.50;99.90
28171;DHT22;15458;53.346;-1.688;2023-02-08T07:39:13;-0.50;99.90
28171;DHT22;15458;53.346;-1.688;2023-02-08T07:41:39;-0.50;99.90
28171;DHT22;15458;53.346;-1.688;2023-02-08T07:44:06;-0.50;99.90
28171;DHT22;15458;53.346;-1.688;2023-02-08T07:46:35;-0.50;99.90
28171;DHT22;15458;53.346;-1.688;2023-02-08T07:49:01;-0.40;99.90
28171;DHT22;15458;53.346;-1.688;2023-02-08T07:51:34;-0.20;99.90
28171;DHT22;15458;53.346;-1.688;2023-02-08T07:54:05;-0.10;99.90
28171;DHT22;15458;53.346;-1.688;2023-02-08T07:56:43;0.00;99.90
28171;DHT22;15458;53.346;-1.688;2023-02-08T07:59:12;0.00;99.90
28171;DHT22;15458;53.346;-1.688;2023-02-08T08:01:46;0.00;99.90
28171;DHT22;15458;53.346;-1.688;2023-02-08T08:04:11;0.10;99.90
28171;DHT22;15458;53.346;-1.688;2023-02-08T08:06:37;0.10;99.90
28171;DHT22;15458;53.346;-1.688;2023-02-08T08:09:03;0.10;99.90
28171;DHT22;15458;53.346;-1.688;2023-02-08T08:11:30;0.10;99.90
28171;DHT22;15458;53.346;-1.688;2023-02-08T08:13:56;0.00;99.90
28171;DHT22;15458;53.346;-1.688;2023-02-08T08:16:21;0.00;99.90
28171;DHT22;15458;53.346;-1.688;2023-02-08T08:18:47;0.10;99.90
28171;DHT22;15458;53.346;-1.688;2023-02-08T08:21:19;0.00;99.90
28171;DHT22;15458;53.346;-1.688;2023-02-08T08:23:45;0.00;99.90
28171;DHT22;15458;53.346;-1.688;2023-02-08T08:26:15;0.00;99.90
28171;DHT22;15458;53.346;-1.688;2023-02-08T08:28:44;0.00;99.90
28171;DHT22;15458;53.346;-1.688;2023-02-08T08:31:14;0.10;99.90
28171;DHT22;15458;53.346;-1.688;2023-02-08T08:33:41;0.10;99.90
28171;DHT22;15458;53.346;-1.688;2023-02-08T08:36:07;0.30;99.90
28171;DHT22;15458;53.346;-1.688;2023-02-08T08:38:33;0.30;99.90
28171;DHT22;15458;53.346;-1.688;2023-02-08T08:40:59;0.40;99.90
28171;DHT22;15458;53.346;-1.688;2023-02-08T08:43:28;0.40;99.90
28171;DHT22;15458;53.346;-1.688;2023-02-08T08:45:54;0.30;99.90
28171;DHT22;15458;53.346;-1.688;2023-02-08T08:48:19;0.40;99.90
28171;DHT22;15458;53.346;-1.688;2023-02-08T08:50:48;0.40;99.90
28171;DHT22;15458;53.346;-1.688;2023-02-08T08:53:15;0.50;99.90
28171;DHT22;15458;53.346;-1.688;2023-02-08T08:55:40;0.50;99.90
28171;DHT22;15458;53.346;-1.688;2023-02-08T08:58:06;0.60;99.90
28171;DHT22;15458;53.346;-1.688;2023-02-08T09:00:32;0.60;99.90
28171;DHT22;15458;53.346;-1.688;2023-02-08T09:02:57;0.60;99.90
28171;DHT22;15458;53.346;-1.688;2023-02-08T09:05:23;0.70;99.90
28171;DHT22;15458;53.346;-1.688;2023-02-08T09:07:49;0.80;99.90
28171;DHT22;15458;53.346;-1.688;2023-02-08T09:10:14;0.80;99.90
28171;DHT22;15458;53.346;-1.688;2023-02-08T09:12:42;0.80;99.90
28171;DHT22;15458;53.346;-1.688;2023-02-08T09:15:08;0.90;99.90
28171;DHT22;15458;53.346;-1.688;2023-02-08T09:17:35;0.90;99.90
28171;DHT22;15458;53.346;-1.688;2023-02-08T09:20:01;0.90;99.90
28171;DHT22;15458;53.346;-1.688;2023-02-08T09:22:27;0.90;99.90
28171;DHT22;15458;53.346;-1.688;2023-02-08T09:24:52;0.90;99.90
28171;DHT22;15458;53.346;-1.688;2023-02-08T09:27:18;1.00;99.90
28171;DHT22;15458;53.346;-1.688;2023-02-08T09:29:44;1.00;99.90
28171;DHT22;15458;53.346;-1.688;2023-02-08T09:32:10;1.10;99.90
28171;DHT22;15458;53.346;-1.688;2023-02-08T09:34:36;1.10;99.90
28171;DHT22;15458;53.346;-1.688;2023-02-08T09:37:01;1.10;99.90
28171;DHT22;15458;53.346;-1.688;2023-02-08T09:39:27;1.20;99.90
28171;DHT22;15458;53.346;-1.688;2023-02-08T09:45:08;1.40;99.90
28171;DHT22;15458;53.346;-1.688;2023-02-08T09:47:41;1.60;99.90
28171;DHT22;15458;53.346;-1.688;2023-02-08T09:50:39;1.70;99.90
28171;DHT22;15458;53.346;-1.688;2023-02-08T09:53:16;1.90;99.90
28171;DHT22;15458;53.346;-1.688;2023-02-08T09:55:54;2.00;99.90
28171;DHT22;15458;53.346;-1.688;2023-02-08T09:58:42;2.20;99.90
28171;DHT22;15458;53.346;-1.688;2023-02-08T10:01:19;2.30;99.90
28171;DHT22;15458;53.346;-1.688;2023-02-08T10:03:46;2.30;99.90
28171;DHT22;15458;53.346;-1.688;2023-02-08T10:06:17;2.40;99.90
28171;DHT22;15458;53.346;-1.688;2023-02-08T10:08:45;2.40;99.90
28171;DHT22;15458;53.346;-1.688;2023-02-08T10:32:44;3.90;99.90
28171;DHT22;15458;53.346;-1.688;2023-02-08T10:35:16;4.40;99.90
28171;DHT22;15458;53.346;-1.688;2023-02-08T10:37:47;4.80;99.90
28171;DHT22;15458;53.346;-1.688;2023-02-08T10:45:31;6.00;99.90
28171;DHT22;15458;53.346;-1.688;2023-02-08T10:48:02;6.40;99.90
28171;DHT22;15458;53.346;-1.688;2023-02-08T10:50:33;6.70;99.90
28171;DHT22;15458;53.346;-1.688;2023-02-08T10:53:00;7.00;99.90
28171;DHT22;15458;53.346;-1.688;2023-02-08T10:55:26;7.30;99.90
28171;DHT22;15458;53.346;-1.688;2023-02-08T10:57:56;7.50;99.90
28171;DHT22;15458;53.346;-1.688;2023-02-08T11:00:29;7.70;99.90
28171;DHT22;15458;53.346;-1.688;2023-02-08T11:03:11;7.90;99.90
28171;DHT22;15458;53.346;-1.688;2023-02-08T11:05:38;8.20;99.90
28171;DHT22;15458;53.346;-1.688;2023-02-08T11:10:31;8.50;99.90
28171;DHT22;15458;53.346;-1.688;2023-02-08T11:15:50;8.90;99.90
28171;DHT22;15458;53.346;-1.688;2023-02-08T11:18:24;9.10;99.90
28171;DHT22;15458;53.346;-1.688;2023-02-08T11:20:56;9.50;99.90
28171;DHT22;15458;53.346;-1.688;2023-02-08T11:23:32;9.80;99.90
28171;DHT22;15458;53.346;-1.688;2023-02-08T11:26:34;10.10;99.90
28171;DHT22;15458;53.346;-1.688;2023-02-08T11:29:22;10.40;99.90
28171;DHT22;15458;53.346;-1.688;2023-02-08T11:32:02;10.70;99.90
28171;DHT22;15458;53.346;-1.688;2023-02-08T11:34:35;10.90;99.90
28171;DHT22;15458;53.346;-1.688;2023-02-08T11:37:31;11.20;99.90
28171;DHT22;15458;53.346;-1.688;2023-02-08T11:39:59;11.70;99.80
28171;DHT22;15458;53.346;-1.688;2023-02-08T11:42:30;12.00;97.40
28171;DHT22;15458;53.346;-1.688;2023-02-08T11:45:00;12.30;95.30
28171;DHT22;15458;53.346;-1.688;2023-02-08T11:47:29;12.50;93.80
28171;DHT22;15458;53.346;-1.688;2023-02-08T11:49:57;12.60;91.20
28171;DHT22;15458;53.346;-1.688;2023-02-08T11:52:30;12.80;90.00
28171;DHT22;15458;53.346;-1.688;2023-02-08T12:00:32;13.20;81.40
28171;DHT22;15458;53.346;-1.688;2023-02-08T12:03:11;13.10;79.00
28171;DHT22;15458;53.346;-1.688;2023-02-08T12:06:20;13.00;75.90
28171;DHT22;15458;53.346;-1.688;2023-02-08T12:11:43;13.40;73.40
28171;DHT22;15458;53.346;-1.688;2023-02-08T12:20:08;13.70;66.30
28171;DHT22;15458;53.346;-1.688;2023-02-08T12:22:41;13.60;64.50
28171;DHT22;15458;53.346;-1.688;2023-02-08T12:25:28;13.40;64.50
28171;DHT22;15458;53.346;-1.688;2023-02-08T12:31:05;13.00;62.50
28171;DHT22;15458;53.346;-1.688;2023-02-08T12:33:48;12.70;62.10
28171;DHT22;15458;53.346;-1.688;2023-02-08T12:39:35;12.30;60.50
28171;DHT22;15458;53.346;-1.688;2023-02-08T12:42:36;12.30;61.60
28171;DHT22;15458;53.346;-1.688;2023-02-08T12:48:55;12.80;61.70
28171;DHT22;15458;53.346;-1.688;2023-02-08T12:51:47;13.00;62.10
28171;DHT22;15458;53.346;-1.688;2023-02-08T12:54:40;13.00;61.40
28171;DHT22;15458;53.346;-1.688;2023-02-08T12:57:11;13.00;60.40
28171;DHT22;15458;53.346;-1.688;2023-02-08T13:00:05;12.90;60.20
28171;DHT22;15458;53.346;-1.688;2023-02-08T13:05:36;12.90;60.10
28171;DHT22;15458;53.346;-1.688;2023-02-08T13:08:40;13.00;59.70
28171;DHT22;15458;53.346;-1.688;2023-02-08T13:14:36;13.40;59.20
28171;DHT22;15458;53.346;-1.688;2023-02-08T13:17:22;13.30;57.80
28171;DHT22;15458;53.346;-1.688;2023-02-08T13:23:21;13.10;57.20
28171;DHT22;15458;53.346;-1.688;2023-02-08T13:26:00;13.00;56.30
28171;DHT22;15458;53.346;-1.688;2023-02-08T13:28:27;13.00;56.80
28171;DHT22;15458;53.346;-1.688;2023-02-08T13:31:14;13.20;57.50
28171;DHT22;15458;53.346;-1.688;2023-02-08T13:34:03;13.60;57.70
28171;DHT22;15458;53.346;-1.688;2023-02-08T13:36:37;13.90;57.70
28171;DHT22;15458;53.346;-1.688;2023-02-08T13:39:06;13.80;56.20
28171;DHT22;15458;53.346;-1.688;2023-02-08T13:41:37;13.70;56.40
28171;DHT22;15458;53.346;-1.688;2023-02-08T13:44:07;13.60;56.40
28171;DHT22;15458;53.346;-1.688;2023-02-08T13:46:47;13.50;56.40
28171;DHT22;15458;53.346;-1.688;2023-02-08T13:49:45;13.30;56.40
28171;DHT22;15458;53.346;-1.688;2023-02-08T13:52:54;13.20;57.00
28171;DHT22;15458;53.346;-1.688;2023-02-08T13:58:24;13.60;58.40
28171;DHT22;15458;53.346;-1.688;2023-02-08T14:03:25;14.20;58.40
28171;DHT22;15458;53.346;-1.688;2023-02-08T14:05:57;14.30;58.60
28171;DHT22;15458;53.346;-1.688;2023-02-08T14:11:11;14.40;57.90
28171;DHT22;15458;53.346;-1.688;2023-02-08T14:13:50;14.20;57.80
28171;DHT22;15458;53.346;-1.688;2023-02-08T14:16:26;14.00;56.50
28171;DHT22;15458;53.346;-1.688;2023-02-08T14:19:02;13.90;57.20
28171;DHT22;15458;53.346;-1.688;2023-02-08T14:21:58;14.00;57.60
28171;DHT22;15458;53.346;-1.688;2023-02-08T14:24:33;14.20;57.10
28171;DHT22;15458;53.346;-1.688;2023-02-08T14:27:15;14.40;57.00
28171;DHT22;15458;53.346;-1.688;2023-02-08T14:29:42;14.50;56.90
28171;DHT22;15458;53.346;-1.688;2023-02-08T14:32:09;14.60;57.00
28171;DHT22;15458;53.346;-1.688;2023-02-08T14:34:46;14.70;57.10
28171;DHT22;15458;53.346;-1.688;2023-02-08T14:39:43;14.50;55.80
28171;DHT22;15458;53.346;-1.688;2023-02-08T14:42:09;14.30;56.20
28171;DHT22;15458;53.346;-1.688;2023-02-08T14:50:20;13.20;56.80
28171;DHT22;15458;53.346;-1.688;2023-02-08T14:55:24;12.70;57.40
28171;DHT22;15458;53.346;-1.688;2023-02-08T14:57:53;12.40;57.20
28171;DHT22;15458;53.346;-1.688;2023-02-08T15:00:26;12.20;57.60
28171;DHT22;15458;53.346;-1.688;2023-02-08T15:02:54;12.10;58.10
28171;DHT22;15458;53.346;-1.688;2023-02-08T15:05:29;12.00;58.40
28171;DHT22;15458;53.346;-1.688;2023-02-08T15:07:57;12.00;59.00
28171;DHT22;15458;53.346;-1.688;2023-02-08T15:10:24;11.90;59.30
28171;DHT22;15458;53.346;-1.688;2023-02-08T15:12:55;11.80;59.50
28171;DHT22;15458;53.346;-1.688;2023-02-08T15:15:30;11.60;59.70
28171;DHT22;15458;53.346;-1.688;2023-02-08T15:17:57;11.60;60.30
28171;DHT22;15458;53.346;-1.688;2023-02-08T15:20:34;11.60;60.40
28171;DHT22;15458;53.346;-1.688;2023-02-08T15:23:05;11.40;60.60
28171;DHT22;15458;53.346;-1.688;2023-02-08T15:25:36;11.30;60.70
28171;DHT22;15458;53.346;-1.688;2023-02-08T15:28:18;11.20;60.90
28171;DHT22;15458;53.346;-1.688;2023-02-08T15:30:45;11.20;61.30
28171;DHT22;15458;53.346;-1.688;2023-02-08T15:33:17;11.10;61.80
28171;DHT22;15458;53.346;-1.688;2023-02-08T15:35:44;11.10;62.10
28171;DHT22;15458;53.346;-1.688;2023-02-08T15:38:17;11.10;62.40
28171;DHT22;15458;53.346;-1.688;2023-02-08T15:41:02;11.00;62.60
28171;DHT22;15458;53.346;-1.688;2023-02-08T15:43:29;10.90;62.90
28171;DHT22;15458;53.346;-1.688;2023-02-08T15:46:03;10.80;63.10
28171;DHT22;15458;53.346;-1.688;2023-02-08T15:48:30;10.60;63.50
28171;DHT22;15458;53.346;-1.688;2023-02-08T15:50:57;10.50;63.80
28171;DHT22;15458;53.346;-1.688;2023-02-08T15:53:24;10.40;64.10
28171;DHT22;15458;53.346;-1.688;2023-02-08T15:56:00;10.20;64.30
28171;DHT22;15458;53.346;-1.688;2023-02-08T15:58:30;10.10;64.80
28171;DHT22;15458;53.346;-1.688;2023-02-08T16:00:58;10.00;65.00
28171;DHT22;15458;53.346;-1.688;2023-02-08T16:03:26;9.80;66.10
28171;DHT22;15458;53.346;-1.688;2023-02-08T16:06:01;9.70;65.80
28171;DHT22;15458;53.346;-1.688;2023-02-08T16:08:30;9.50;66.20
28171;DHT22;15458;53.346;-1.688;2023-02-08T16:10:59;9.30;65.90
28171;DHT22;15458;53.346;-1.688;2023-02-08T16:13:31;9.00;65.60
28171;DHT22;15458;53.346;-1.688;2023-02-08T16:16:22;8.80;65.70
28171;DHT22;15458;53.346;-1.688;2023-02-08T16:18:59;8.60;65.70
28171;DHT22;15458;53.346;-1.688;2023-02-08T16:24:05;8.20;66.30
28171;DHT22;15458;53.346;-1.688;2023-02-08T16:32:03;7.80;66.40
28171;DHT22;15458;53.346;-1.688;2023-02-08T16:34:34;7.60;66.60
28171;DHT22;15458;53.346;-1.688;2023-02-08T16:37:02;7.50;66.90
28171;DHT22;15458;53.346;-1.688;2023-02-08T16:39:37;7.40;67.20
28171;DHT22;15458;53.346;-1.688;2023-02-08T16:42:27;7.30;67.40
28171;DHT22;15458;53.346;-1.688;2023-02-08T16:45:10;7.20;67.50
28171;DHT22;15458;53.346;-1.688;2023-02-08T16:47:41;7.10;68.30
28171;DHT22;15458;53.346;-1.688;2023-02-08T16:50:11;7.10;67.80
28171;DHT22;15458;53.346;-1.688;2023-02-08T16:52:37;7.00;67.90
28171;DHT22;15458;53.346;-1.688;2023-02-08T16:55:03;7.10;68.70
28171;DHT22;15458;53.346;-1.688;2023-02-08T16:57:45;7.10;69.30
28171;DHT22;15458;53.346;-1.688;2023-02-08T17:02:53;7.00;69.60
28171;DHT22;15458;53.346;-1.688;2023-02-08T17:05:21;6.90;69.80
28171;DHT22;15458;53.346;-1.688;2023-02-08T17:07:47;6.80;69.90
28171;DHT22;15458;53.346;-1.688;2023-02-08T17:10:21;6.60;69.80
28171;DHT22;15458;53.346;-1.688;2023-02-08T17:12:47;6.50;70.10
28171;DHT22;15458;53.346;-1.688;2023-02-08T17:15:13;6.40;70.40
28171;DHT22;15458;53.346;-1.688;2023-02-08T17:17:38;6.40;71.00
28171;DHT22;15458;53.346;-1.688;2023-02-08T17:20:16;6.30;71.50
28171;DHT22;15458;53.346;-1.688;2023-02-08T17:22:43;6.20;71.60
28171;DHT22;15458;53.346;-1.688;2023-02-08T17:25:10;6.10;71.80
28171;DHT22;15458;53.346;-1.688;2023-02-08T17:27:39;6.10;72.20
28171;DHT22;15458;53.346;-1.688;2023-02-08T17:30:05;6.10;72.60
28171;DHT22;15458;53.346;-1.688;2023-02-08T17:32:31;6.10;72.90
28171;DHT22;15458;53.346;-1.688;2023-02-08T17:34:57;6.10;73.10
28171;DHT22;15458;53.346;-1.688;2023-02-08T17:37:24;6.10;73.50
28171;DHT22;15458;53.346;-1.688;2023-02-08T17:39:50;6.10;74.10
28171;DHT22;15458;53.346;-1.688;2023-02-08T17:42:16;6.10;74.40
28171;DHT22;15458;53.346;-1.688;2023-02-08T17:44:42;6.10;74.90
28171;DHT22;15458;53.346;-1.688;2023-02-08T17:47:07;6.10;75.00
28171;DHT22;15458;53.346;-1.688;2023-02-08T17:49:33;6.10;75.60
28171;DHT22;15458;53.346;-1.688;2023-02-08T17:51:59;6.10;75.90
28171;DHT22;15458;53.346;-1.688;2023-02-08T17:54:24;6.00;76.00
28171;DHT22;15458;53.346;-1.688;2023-02-08T17:56:50;5.90;76.60
28171;DHT22;15458;53.346;-1.688;2023-02-08T17:59:21;5.80;76.90
28171;DHT22;15458;53.346;-1.688;2023-02-08T18:01:46;5.80;77.70
28171;DHT22;15458;53.346;-1.688;2023-02-08T18:04:12;5.70;78.50
28171;DHT22;15458;53.346;-1.688;2023-02-08T18:06:38;5.60;78.90
28171;DHT22;15458;53.346;-1.688;2023-02-08T18:09:04;5.50;79.20